Time;durP1;ratioP1;P1;durP2;ratioP2;P2;SDS_P1;SDS_P2;PMS_P1;PMS_P2;Temp;Humidity;BMP_temperature;BMP_pressure;BME280_temperature;BME280_humidity;BME280_pressure;Samples;Min_cycle;Max_cycle;Signal;HPM_P1;HPM_P2
2022/03/03 00:01:22;;;;;;;0.90;0.90;;;-1.90;1.00;;;;;;5075006;28;20190;-74
2022/03/03 00:03:48;;;;;;;0.90;0.90;;;-1.90;1.00;;;;;;5074578;28;20183;-74
2022/03/03 00:06:13;;;;;;;0.90;0.90;;;-1.90;1.00;;;;;;5074794;28;20190;-73
2022/03/03 00:08:39;;;;;;;0.83;0.83;;;-2.00;1.00;;;;;;5074848;28;20181;-74
2022/03/03 00:11:04;;;;;;;0.87;0.87;;;-2.10;1.00;;;;;;5074484;28;20206;-73
2022/03/03 00:13:30;;;;;;;0.80;0.80;;;-2.10;1.00;;;;;;5075013;28;20597;-74
2022/03/03 00:15:56;;;;;;;0.90;0.90;;;-2.20;1.00;;;;;;5074904;28;20167;-74
2022/03/03 00:18:21;;;;;;;0.90;0.90;;;-2.20;1.00;;;;;;5074670;28;20186;-73
2022/03/03 00:20:47;;;;;;;0.90;0.90;;;-2.20;1.00;;;;;;5074309;28;20194;-73
2022/03/03 00:23:12;;;;;;;0.90;0.90;;;-2.20;1.00;;;;;;5074781;28;20190;-74
2022/03/03 00:25:38;;;;;;;0.90;0.90;;;-2.10;1.00;;;;;;5075420;28;20174;-74
2022/03/03 00:28:04;;;;;;;0.97;0.97;;;-2.30;1.00;;;;;;5074597;28;20226;-74
2022/03/03 00:30:30;;;;;;;1.00;1.00;;;-2.40;1.00;;;;;;5074274;28;20604;-74
2022/03/03 00:32:55;;;;;;;1.00;1.00;;;-2.40;1.00;;;;;;5074096;28;20190;-73
2022/03/03 00:35:21;;;;;;;0.90;0.90;;;-2.40;1.00;;;;;;5074613;28;20174;-75
2022/03/03 00:37:47;;;;;;;0.80;0.80;;;-2.40;1.00;;;;;;5074854;28;20190;-74
2022/03/03 00:40:12;;;;;;;1.00;1.00;;;-2.50;1.00;;;;;;5073499;28;20688;-73
2022/03/03 00:42:38;;;;;;;0.90;0.90;;;-2.50;1.00;;;;;;5073987;28;20181;-74
2022/03/03 00:45:05;;;;;;;0.90;0.90;;;-2.50;1.00;;;;;;5074068;28;20175;-73
2022/03/03 00:47:31;;;;;;;0.90;0.90;;;-2.50;1.00;;;;;;5073668;28;20241;-73
2022/03/03 00:49:56;;;;;;;0.80;0.80;;;-2.60;1.00;;;;;;5073718;28;20628;-73
2022/03/03 00:52:22;;;;;;;0.87;0.87;;;-2.50;1.00;;;;;;5074102;28;20190;-72
2022/03/03 00:54:48;;;;;;;0.90;0.90;;;-2.60;1.00;;;;;;5074268;28;20217;-73
2022/03/03 00:57:13;;;;;;;0.83;0.83;;;-2.50;1.00;;;;;;5073839;28;20723;-73
2022/03/03 00:59:39;;;;;;;0.90;0.90;;;-2.50;1.00;;;;;;5073065;28;20206;-73
2022/03/03 01:02:04;;;;;;;1.00;1.00;;;-2.60;1.00;;;;;;5073684;28;20175;-73
2022/03/03 01:04:30;;;;;;;0.90;0.90;;;-2.60;1.00;;;;;;5073339;28;20182;-74
2022/03/03 01:06:55;;;;;;;0.80;0.80;;;-2.50;1.00;;;;;;5072332;28;20703;-73
2022/03/03 01:09:21;;;;;;;1.00;1.00;;;-2.50;1.00;;;;;;5072673;28;20274;-74
2022/03/03 01:11:46;;;;;;;0.90;0.90;;;-2.60;1.00;;;;;;5073179;28;20663;-75
2022/03/03 01:14:12;;;;;;;1.00;1.00;;;-2.70;1.00;;;;;;5073143;28;20205;-74
2022/03/03 01:16:37;;;;;;;0.90;0.90;;;-2.90;1.00;;;;;;5072897;28;20554;-74
2022/03/03 01:19:04;;;;;;;0.90;0.90;;;-2.90;25.80;;;;;;5072576;28;20174;-74
2022/03/03 01:21:30;;;;;;;0.90;0.90;;;-2.90;22.70;;;;;;5073006;28;20178;-74
2022/03/03 01:23:57;;;;;;;0.90;0.90;;;-2.90;1.00;;;;;;5073060;28;20185;-72
2022/03/03 01:26:23;;;;;;;0.90;0.90;;;-2.90;1.00;;;;;;5072790;28;20632;-73
2022/03/03 01:28:48;;;;;;;0.97;0.97;;;-2.90;1.00;;;;;;5072785;28;20257;-75
2022/03/03 01:31:14;;;;;;;0.83;0.83;;;-3.00;1.00;;;;;;5072034;28;20399;-75
2022/03/03 01:33:39;;;;;;;0.90;0.90;;;-3.10;1.00;;;;;;5072478;28;20204;-73
2022/03/03 01:36:05;;;;;;;1.00;1.00;;;-3.00;22.20;;;;;;5072738;28;20228;-74
2022/03/03 01:38:30;;;;;;;0.90;0.90;;;-2.90;16.60;;;;;;5072673;28;20170;-73
2022/03/03 01:40:56;;;;;;;1.00;1.00;;;-2.80;1.00;;;;;;5072198;28;20613;-72
2022/03/03 01:43:21;;;;;;;1.00;1.00;;;-2.80;1.00;;;;;;5072506;28;20178;-72
2022/03/03 01:45:47;;;;;;;1.00;1.00;;;-2.80;1.00;;;;;;5072337;28;20181;-74
2022/03/03 01:48:13;;;;;;;0.90;0.90;;;-2.80;1.00;;;;;;5072502;28;20290;-72
2022/03/03 01:50:39;;;;;;;0.87;0.87;;;-2.80;1.00;;;;;;5071815;28;20194;-72
2022/03/03 01:53:04;;;;;;;1.00;1.00;;;-2.80;1.00;;;;;;5072471;28;20660;-74
2022/03/03 01:55:31;;;;;;;0.90;0.90;;;-2.80;1.00;;;;;;5072290;28;20479;-74
2022/03/03 01:58:00;;;;;;;0.90;0.90;;;-2.80;1.00;;;;;;5072167;28;20186;-74
2022/03/03 02:00:25;;;;;;;0.97;0.97;;;-2.80;1.00;;;;;;5071413;28;20201;-73
2022/03/03 02:02:51;;;;;;;1.00;1.00;;;-2.80;1.00;;;;;;5071887;28;20171;-74
2022/03/03 02:05:17;;;;;;;1.00;1.00;;;-2.80;1.00;;;;;;5072206;28;20235;-74
2022/03/03 02:07:42;;;;;;;0.90;0.90;;;-2.80;1.00;;;;;;5071922;28;20672;-72
2022/03/03 02:10:08;;;;;;;0.93;0.93;;;-2.80;1.00;;;;;;5071423;28;20205;-73
2022/03/03 02:12:34;;;;;;;0.90;0.90;;;-2.80;1.00;;;;;;5071927;28;20671;-73
2022/03/03 02:14:59;;;;;;;0.90;0.90;;;-2.70;10.40;;;;;;5071857;28;20198;-73
2022/03/03 02:17:25;;;;;;;0.90;0.90;;;-2.60;21.30;;;;;;5072059;28;20627;-73
2022/03/03 02:19:51;;;;;;;1.00;1.00;;;-2.60;1.00;;;;;;5071058;28;20194;-73
2022/03/03 02:22:16;;;;;;;0.87;0.87;;;-2.60;1.00;;;;;;5071775;28;20171;-72
2022/03/03 02:24:43;;;;;;;1.00;1.00;;;-2.70;1.00;;;;;;5072104;28;20285;-72
2022/03/03 02:27:10;;;;;;;0.90;0.90;;;-2.80;1.00;;;;;;5071480;28;20218;-73
2022/03/03 02:29:36;;;;;;;1.00;1.00;;;-2.90;1.00;;;;;;5070840;28;20327;-73
2022/03/03 02:32:06;;;;;;;0.90;0.90;;;-2.90;1.00;;;;;;5071608;28;20228;-74
2022/03/03 02:34:32;;;;;;;0.90;0.90;;;-2.90;1.00;;;;;;5071328;28;20599;-73
2022/03/03 02:36:58;;;;;;;0.90;0.90;;;-2.90;1.00;;;;;;5071452;28;20261;-73
2022/03/03 02:39:24;;;;;;;0.90;0.90;;;-3.00;1.00;;;;;;5070799;28;20315;-71
2022/03/03 02:41:49;;;;;;;0.97;0.97;;;-3.10;1.00;;;;;;5071206;28;20185;-73
2022/03/03 02:44:15;;;;;;;1.00;1.00;;;-3.10;1.00;;;;;;5071086;28;20179;-73
2022/03/03 02:46:41;;;;;;;1.00;1.00;;;-3.10;1.00;;;;;;5071980;28;20214;-72
2022/03/03 02:49:08;;;;;;;0.90;0.90;;;-3.10;1.00;;;;;;5071563;28;20170;-72
2022/03/03 02:51:33;;;;;;;0.90;0.90;;;-3.10;1.00;;;;;;5072480;28;20178;-73
2022/03/03 02:53:59;;;;;;;0.90;0.90;;;-3.00;1.00;;;;;;5072606;28;20201;-72
2022/03/03 02:56:24;;;;;;;0.90;0.90;;;-3.10;1.00;;;;;;5072151;28;20183;-74
2022/03/03 02:58:50;;;;;;;1.00;1.00;;;-3.10;1.00;;;;;;5071163;28;20174;-74
2022/03/03 03:01:15;;;;;;;0.90;0.90;;;-3.10;1.00;;;;;;5071003;28;20247;-74
2022/03/03 03:03:41;;;;;;;0.90;0.90;;;-3.10;1.00;;;;;;5071768;28;20174;-74
2022/03/03 03:06:07;;;;;;;1.00;1.00;;;-3.10;1.00;;;;;;5071370;28;20331;-72
2022/03/03 03:08:33;;;;;;;1.00;1.00;;;-3.00;1.00;;;;;;5071137;28;20704;-72
2022/03/03 03:10:59;;;;;;;0.93;0.93;;;-3.10;1.00;;;;;;5070554;28;20194;-72
2022/03/03 03:13:24;;;;;;;0.80;0.80;;;-3.10;1.00;;;;;;5070879;28;20624;-71
2022/03/03 03:15:50;;;;;;;0.90;0.90;;;-3.30;1.00;;;;;;5071544;28;20538;-73
2022/03/03 03:18:18;;;;;;;0.90;0.90;;;-3.30;1.00;;;;;;5070844;28;20562;-74
2022/03/03 03:20:46;;;;;;;0.90;0.90;;;-3.30;1.00;;;;;;5070182;28;20818;-72
2022/03/03 03:23:14;;;;;;;1.00;1.00;;;-3.30;9.50;;;;;;5070624;28;20530;-74
2022/03/03 03:25:43;;;;;;;0.97;0.97;;;-3.50;1.00;;;;;;5070840;28;20181;-71
2022/03/03 03:28:09;;;;;;;0.90;0.90;;;-3.50;1.00;;;;;;5070708;28;20233;-72
2022/03/03 03:30:35;;;;;;;0.97;0.97;;;-3.40;1.00;;;;;;5069707;28;20194;-73
2022/03/03 03:33:00;;;;;;;0.90;0.90;;;-3.40;1.00;;;;;;5070700;28;20201;-72
2022/03/03 03:35:26;;;;;;;0.90;0.90;;;-3.40;1.00;;;;;;5070804;28;20236;-71
2022/03/03 03:37:52;;;;;;;0.90;0.90;;;-3.40;1.00;;;;;;5070855;28;20253;-75
2022/03/03 03:40:18;;;;;;;0.90;0.90;;;-3.40;1.00;;;;;;5070124;28;20728;-74
2022/03/03 03:42:43;;;;;;;0.90;0.90;;;-3.40;1.00;;;;;;5071153;28;20182;-72
2022/03/03 03:45:10;;;;;;;0.90;0.90;;;-3.40;1.00;;;;;;5070889;28;20317;-72
2022/03/03 03:47:36;;;;;;;1.00;1.00;;;-3.50;1.00;;;;;;5070576;28;20650;-72
2022/03/03 03:50:02;;;;;;;0.87;0.87;;;-3.50;1.00;;;;;;5069721;28;20198;-72
2022/03/03 03:52:31;;;;;;;0.90;0.90;;;-3.50;1.00;;;;;;5070634;28;20190;-72
2022/03/03 03:54:58;;;;;;;0.90;0.90;;;-3.50;8.50;;;;;;5070432;28;20217;-73
2022/03/03 03:57:24;;;;;;;0.90;0.90;;;-3.60;1.00;;;;;;5070663;28;20257;-74
2022/03/03 03:59:49;;;;;;;1.00;1.00;;;-3.60;1.00;;;;;;5070234;28;20662;-74
2022/03/03 04:02:15;;;;;;;1.00;1.00;;;-3.70;1.00;;;;;;5070607;28;20173;-73
2022/03/03 04:04:40;;;;;;;0.90;0.90;;;-3.70;1.00;;;;;;5070703;28;20546;-71
2022/03/03 04:07:06;;;;;;;0.93;0.93;;;-3.70;1.00;;;;;;5070312;28;20288;-73
2022/03/03 04:09:31;;;;;;;0.90;0.90;;;-3.70;1.00;;;;;;5069859;28;20190;-72
2022/03/03 04:11:57;;;;;;;0.90;0.90;;;-3.70;1.00;;;;;;5070819;28;20672;-71
2022/03/03 04:14:22;;;;;;;1.00;1.00;;;-3.70;1.00;;;;;;5070937;28;20225;-71
2022/03/03 04:16:48;;;;;;;0.90;0.90;;;-3.70;1.00;;;;;;5070768;28;20574;-72
2022/03/03 04:19:14;;;;;;;0.90;0.90;;;-3.70;1.00;;;;;;5069788;28;20198;-73
2022/03/03 04:21:40;;;;;;;0.90;0.90;;;-3.70;1.00;;;;;;5070319;28;20210;-73
2022/03/03 04:24:06;;;;;;;0.90;0.90;;;-3.60;1.00;;;;;;5070251;28;20248;-74
2022/03/03 04:26:33;;;;;;;1.00;1.00;;;-3.60;1.00;;;;;;5070368;28;20637;-74
2022/03/03 04:28:58;;;;;;;0.90;0.90;;;-3.70;9.60;;;;;;5069525;28;20182;-72
2022/03/03 04:31:24;;;;;;;0.90;0.90;;;-3.70;3.70;;;;;;5069552;28;20679;-74
2022/03/03 04:33:50;;;;;;;1.00;1.00;;;-3.80;1.00;;;;;;5069948;28;20205;-74
2022/03/03 04:36:16;;;;;;;0.93;0.93;;;-3.90;31.60;;;;;;5069935;28;20175;-74
2022/03/03 04:38:42;;;;;;;0.90;0.90;;;-3.90;54.60;;;;;;5069728;28;20190;-74
2022/03/03 04:41:08;;;;;;;1.00;1.00;;;-3.80;78.40;;;;;;5069379;28;20198;-73
2022/03/03 04:43:34;;;;;;;0.90;0.90;;;-3.80;37.10;;;;;;5073289;28;20555;-73
2022/03/03 04:45:59;;;;;;;1.00;1.00;;;-3.80;2.90;;;;;;5073390;28;20564;-73
2022/03/03 04:48:29;;;;;;;0.90;0.90;;;-3.80;3.50;;;;;;5073473;28;20229;-73
2022/03/03 04:50:56;;;;;;;1.00;1.00;;;-3.90;7.10;;;;;;5072471;28;20632;-73
2022/03/03 04:53:22;;;;;;;0.90;0.90;;;-3.90;8.90;;;;;;5073213;28;20186;-73
2022/03/03 04:55:47;;;;;;;0.90;0.90;;;-3.80;28.70;;;;;;5073585;28;20182;-73
2022/03/03 04:58:13;;;;;;;0.90;0.90;;;-3.80;58.90;;;;;;5073189;28;20206;-73
2022/03/03 05:00:39;;;;;;;0.80;0.80;;;-3.80;90.60;;;;;;5072306;28;20237;-74
2022/03/03 05:03:04;;;;;;;0.90;0.90;;;-3.90;95.50;;;;;;5074364;28;20178;-74
2022/03/03 05:05:30;;;;;;;1.00;1.00;;;-4.00;80.50;;;;;;5074056;28;20644;-73
2022/03/03 05:07:55;;;;;;;0.80;0.80;;;-4.00;44.50;;;;;;5073964;28;20202;-73
2022/03/03 05:10:21;;;;;;;0.90;0.90;;;-4.00;15.20;;;;;;5073677;28;20194;-73
2022/03/03 05:12:47;;;;;;;0.80;0.80;;;-4.00;17.00;;;;;;5074349;28;20171;-73
2022/03/03 05:15:12;;;;;;;0.90;0.90;;;-4.00;21.90;;;;;;5074141;28;20696;-72
2022/03/03 05:17:38;;;;;;;0.90;0.90;;;-4.10;45.80;;;;;;5073962;28;20174;-73
2022/03/03 05:20:04;;;;;;;0.87;0.87;;;-4.10;99.90;;;;;;5073531;28;20190;-73
2022/03/03 05:22:30;;;;;;;0.80;0.80;;;-4.00;99.90;;;;;;5073162;28;20190;-71
2022/03/03 05:24:55;;;;;;;0.80;0.80;;;-3.70;99.90;;;;;;5073995;28;20225;-72
2022/03/03 05:27:21;;;;;;;0.90;0.90;;;-3.80;99.90;;;;;;5073737;28;20214;-71
2022/03/03 05:29:47;;;;;;;0.90;0.90;;;-3.70;99.90;;;;;;5072813;28;20270;-72
2022/03/03 05:32:12;;;;;;;0.90;0.90;;;-3.90;95.40;;;;;;5072700;28;20201;-73
2022/03/03 05:34:38;;;;;;;0.90;0.90;;;-4.00;68.20;;;;;;5073374;28;20198;-73
2022/03/03 05:37:06;;;;;;;1.00;1.00;;;-4.00;58.60;;;;;;5070937;28;20178;-74
2022/03/03 05:39:32;;;;;;;0.90;0.90;;;-4.10;31.70;;;;;;5072626;28;20275;-73
2022/03/03 05:41:58;;;;;;;0.87;0.87;;;-4.00;24.40;;;;;;5073653;28;20273;-73
2022/03/03 05:44:24;;;;;;;0.80;0.80;;;-4.10;1.00;;;;;;5073413;28;20656;-73
2022/03/03 05:46:50;;;;;;;0.93;0.93;;;-4.10;1.00;;;;;;5073798;28;20297;-73
2022/03/03 05:49:20;;;;;;;0.80;0.80;;;-4.20;1.00;;;;;;5072885;28;20187;-74
2022/03/03 05:51:45;;;;;;;0.90;0.90;;;-4.10;1.00;;;;;;5073124;28;20201;-74
2022/03/03 05:54:11;;;;;;;0.97;0.97;;;-4.20;1.00;;;;;;5073336;28;20178;-74
2022/03/03 05:56:39;;;;;;;0.90;0.90;;;-4.40;1.00;;;;;;5073231;28;20171;-73
2022/03/03 05:59:13;;;;;;;1.00;1.00;;;-4.20;30.00;;;;;;5072589;28;20178;-75
2022/03/03 06:01:41;;;;;;;0.90;0.90;;;-4.10;29.20;;;;;;5073003;28;20543;-74
2022/03/03 06:04:08;;;;;;;0.90;0.90;;;-3.90;15.70;;;;;;5073095;28;20174;-74
2022/03/03 06:06:36;;;;;;;0.83;0.83;;;-3.90;1.30;;;;;;5073204;28;20287;-75
2022/03/03 06:09:09;;;;;;;0.90;0.90;;;-4.00;1.00;;;;;;5072612;28;20263;-74
2022/03/03 06:11:54;;;;;;;0.90;0.90;;;-4.00;1.00;;;;;;5072876;28;20265;-74
2022/03/03 06:14:27;;;;;;;0.90;0.90;;;-4.00;1.00;;;;;;5072938;28;20240;-75
2022/03/03 06:16:57;;;;;;;0.83;0.83;;;-4.10;1.00;;;;;;5073066;28;20175;-74
2022/03/03 06:19:23;;;;;;;0.80;0.80;;;-4.20;34.20;;;;;;5072344;28;20205;-74
2022/03/03 06:21:49;;;;;;;0.80;0.80;;;-4.10;90.30;;;;;;5072723;28;20176;-74
2022/03/03 06:24:14;;;;;;;0.90;0.90;;;-4.10;91.10;;;;;;5072722;28;20541;-75
2022/03/03 06:26:40;;;;;;;0.90;0.90;;;-4.00;71.60;;;;;;5072457;28;20202;-75
2022/03/03 06:29:06;;;;;;;0.93;0.93;;;-3.90;49.10;;;;;;5072047;28;20201;-74
2022/03/03 06:31:31;;;;;;;0.80;0.80;;;-3.80;46.40;;;;;;5072635;28;20167;-75
2022/03/03 06:33:57;;;;;;;0.90;0.90;;;-3.60;7.50;;;;;;5072276;28;20239;-74
2022/03/03 06:36:22;;;;;;;0.90;0.90;;;-3.20;1.00;;;;;;5072550;28;20178;-74
2022/03/03 06:38:48;;;;;;;0.93;0.93;;;-3.10;1.00;;;;;;5072132;28;20228;-74
2022/03/03 06:41:13;;;;;;;0.90;0.90;;;-3.00;1.00;;;;;;5071758;28;20198;-73
2022/03/03 06:43:39;;;;;;;0.90;0.90;;;-2.80;1.00;;;;;;5072259;28;20186;-74
2022/03/03 06:46:05;;;;;;;0.90;0.90;;;-2.60;1.00;;;;;;5072530;28;20174;-75
2022/03/03 06:48:31;;;;;;;1.00;1.00;;;-2.20;1.00;;;;;;5072274;28;20267;-74
2022/03/03 06:51:02;;;;;;;0.90;0.90;;;-1.60;1.00;;;;;;5073199;28;20221;-75
2022/03/03 06:53:31;;;;;;;0.90;0.90;;;-1.50;99.90;;;;;;5076271;28;20179;-74
2022/03/03 06:56:08;;;;;;;0.80;0.80;;;-1.60;1.00;;;;;;5075611;28;20171;-74
2022/03/03 06:58:35;;;;;;;0.90;0.90;;;-1.10;99.90;;;;;;5075318;28;20178;-73
2022/03/03 07:01:07;;;;;;;0.80;0.80;;;-0.20;1.00;;;;;;5072686;28;20663;-74
2022/03/03 07:03:33;;;;;;;0.70;0.70;;;1.80;1.00;;;;;;5072156;28;20202;-74
2022/03/03 07:06:01;;;;;;;0.80;0.80;;;3.00;99.90;;;;;;5071157;28;20186;-75
2022/03/03 07:08:27;;;;;;;0.83;0.83;;;3.50;1.00;;;;;;5071823;28;20238;-75
2022/03/03 07:10:53;;;;;;;0.80;0.80;;;3.60;1.00;;;;;;5071110;28;20213;-75
2022/03/03 07:13:19;;;;;;;0.60;0.60;;;4.10;1.00;;;;;;5072021;28;20170;-74
2022/03/03 07:15:55;;;;;;;0.60;0.60;;;4.00;1.00;;;;;;5071811;28;20258;-75
2022/03/03 07:18:34;;;;;;;0.70;0.70;;;4.50;1.00;;;;;;5071716;28;20178;-73
2022/03/03 07:21:13;;;;;;;0.70;0.70;;;5.00;1.00;;;;;;5071100;28;20197;-75
2022/03/03 07:23:40;;;;;;;0.60;0.60;;;5.20;1.00;;;;;;5071832;28;20182;-74
2022/03/03 07:26:08;;;;;;;0.60;0.60;;;5.80;1.00;;;;;;5071307;28;20183;-75
2022/03/03 07:28:38;;;;;;;0.50;0.50;;;6.10;1.00;;;;;;5071036;28;20695;-75
2022/03/03 07:31:03;;;;;;;0.50;0.50;;;6.30;1.00;;;;;;5070783;28;20229;-75
2022/03/03 07:33:35;;;;;;;0.40;0.40;;;6.30;1.00;;;;;;5071401;28;20581;-75
2022/03/03 07:36:00;;;;;;;0.50;0.50;;;6.40;1.00;;;;;;5075591;28;20174;-75
2022/03/03 07:38:34;;;;;;;0.53;0.53;;;6.90;1.00;;;;;;5071748;28;20259;-76
2022/03/03 07:41:01;;;;;;;0.40;0.40;;;7.00;1.00;;;;;;5070619;28;20698;-75
2022/03/03 07:43:26;;;;;;;0.40;0.40;;;7.30;1.00;;;;;;5071268;28;20232;-75
2022/03/03 07:45:52;;;;;;;0.43;0.43;;;7.50;1.00;;;;;;5072106;28;20182;-74
2022/03/03 07:48:22;;;;;;;0.40;0.40;;;7.90;1.00;;;;;;5073080;28;20202;-75
2022/03/03 07:50:47;;;;;;;0.40;0.40;;;7.90;1.00;;;;;;5073184;28;20225;-74
2022/03/03 07:53:13;;;;;;;0.30;0.30;;;8.10;1.00;;;;;;5074666;28;20178;-75
2022/03/03 07:55:53;;;;;;;0.30;0.30;;;8.30;1.00;;;;;;5071741;28;20682;-76
2022/03/03 07:58:21;;;;;;;0.50;0.50;;;8.10;1.00;;;;;;5072656;28;20182;-76
2022/03/03 08:00:51;;;;;;;0.43;0.43;;;8.30;1.00;;;;;;5071870;28;20202;-76
2022/03/03 08:03:19;;;;;;;0.40;0.40;;;8.40;1.00;;;;;;5071412;28;20185;-75
2022/03/03 08:05:47;;;;;;;0.40;0.40;;;7.90;1.00;;;;;;5071512;28;20179;-74
2022/03/03 08:08:15;;;;;;;0.40;0.40;;;8.10;1.00;;;;;;5071609;28;20210;-77
2022/03/03 08:10:45;;;;;;;0.40;0.40;;;7.40;1.00;;;;;;5071347;28;20259;-76
2022/03/03 08:13:16;;;;;;;0.33;0.33;;;7.00;1.00;;;;;;5071491;28;20236;-75
2022/03/03 08:15:45;;;;;;;0.30;0.30;;;8.00;1.00;;;;;;5072646;28;20167;-74
2022/03/03 08:18:11;;;;;;;0.40;0.40;;;7.70;1.00;;;;;;5075302;28;20197;-75
2022/03/03 08:20:39;;;;;;;0.40;0.40;;;7.90;1.00;;;;;;5074774;28;20668;-77
2022/03/03 08:23:06;;;;;;;0.40;0.40;;;8.10;1.00;;;;;;5079515;28;20183;-76
2022/03/03 08:25:33;;;;;;;0.33;0.33;;;7.80;1.00;;;;;;5074964;28;20173;-76
2022/03/03 08:27:59;;;;;;;0.33;0.33;;;7.70;1.00;;;;;;5074839;28;20696;-76
2022/03/03 08:30:25;;;;;;;0.33;0.33;;;7.60;1.00;;;;;;5074355;28;20657;-75
2022/03/03 08:33:28;;;;;;;0.50;0.50;;;7.10;1.00;;;;;;5074988;28;20204;-75
2022/03/03 08:35:56;;;;;;;0.50;0.50;;;7.80;1.00;;;;;;5065641;28;20189;-77
2022/03/03 08:38:34;;;;;;;0.37;0.37;;;7.60;1.00;;;;;;5074640;28;20200;-76
2022/03/03 08:41:01;;;;;;;0.40;0.40;;;8.10;1.00;;;;;;5074487;28;20213;-76
2022/03/03 08:43:32;;;;;;;0.40;0.40;;;9.20;1.00;;;;;;5075058;28;20209;-73
2022/03/03 08:46:05;;;;;;;0.40;0.40;;;9.00;1.00;;;;;;5074755;28;20703;-76
2022/03/03 08:48:33;;;;;;;0.50;0.50;;;9.20;1.00;;;;;;5074668;28;20257;-76
2022/03/03 08:51:00;;;;;;;0.37;0.37;;;9.60;1.00;;;;;;5074602;28;20229;-76
2022/03/03 08:53:26;;;;;;;0.30;0.30;;;9.90;1.00;;;;;;5074528;28;20171;-75
2022/03/03 08:55:54;;;;;;;0.30;0.30;;;10.40;1.00;;;;;;5074514;28;20175;-75
2022/03/03 08:58:21;;;;;;;0.40;0.40;;;10.60;1.00;;;;;;5074281;28;20170;-76
2022/03/03 09:00:48;;;;;;;0.30;0.30;;;11.00;1.00;;;;;;5073723;28;20195;-76
2022/03/03 09:03:15;;;;;;;0.30;0.30;;;10.00;1.00;;;;;;5074579;28;20187;-76
2022/03/03 09:05:41;;;;;;;0.37;0.37;;;9.50;1.00;;;;;;5074446;28;20213;-74
2022/03/03 09:08:07;;;;;;;0.30;0.30;;;9.90;1.00;;;;;;5074129;28;20257;-74
2022/03/03 09:10:33;;;;;;;0.30;0.30;;;9.70;1.00;;;;;;5073595;28;20322;-72
2022/03/03 09:13:00;;;;;;;0.30;0.30;;;9.10;1.00;;;;;;5074206;28;20192;-75
2022/03/03 09:15:30;;;;;;;0.30;0.30;;;9.10;1.00;;;;;;5074391;28;20675;-74
2022/03/03 09:17:55;;;;;;;0.30;0.30;;;10.00;1.00;;;;;;5073911;28;20236;-75
2022/03/03 09:20:21;;;;;;;0.40;0.40;;;11.30;1.00;;;;;;5073441;28;20616;-75
2022/03/03 09:22:46;;;;;;;0.33;0.33;;;11.70;1.00;;;;;;5074015;28;20648;-76
2022/03/03 09:25:12;;;;;;;0.30;0.30;;;10.30;1.00;;;;;;5055989;28;20175;-76
2022/03/03 09:27:38;;;;;;;0.40;0.40;;;10.70;1.00;;;;;;5073962;28;20214;-78
2022/03/03 09:30:06;;;;;;;0.30;0.30;;;11.60;1.00;;;;;;5074835;28;20682;-74
2022/03/03 09:32:32;;;;;;;0.30;0.30;;;12.00;1.00;;;;;;5073993;28;20290;-77
2022/03/03 09:34:57;;;;;;;0.30;0.30;;;11.60;1.00;;;;;;5074875;28;20202;-76
2022/03/03 09:37:23;;;;;;;0.40;0.40;;;11.40;1.00;;;;;;5074924;28;20232;-75
2022/03/03 09:39:50;;;;;;;0.30;0.30;;;12.50;1.00;;;;;;5056360;28;20215;-76
2022/03/03 09:42:16;;;;;;;0.37;0.37;;;12.00;1.00;;;;;;5075026;28;20241;-76
2022/03/03 09:44:42;;;;;;;0.40;0.40;;;10.50;1.00;;;;;;5074741;28;20709;-76
2022/03/03 09:47:09;;;;;;;0.30;0.30;;;10.50;1.00;;;;;;5075434;28;20313;-77
2022/03/03 09:49:34;;;;;;;0.30;0.30;;;10.60;1.00;;;;;;5074243;28;20198;-75
2022/03/03 09:52:01;;;;;;;0.30;0.30;;;11.10;1.00;;;;;;5075095;28;20563;-76
2022/03/03 09:54:26;;;;;;;0.30;0.30;;;11.70;1.00;;;;;;5074966;28;20205;-77
2022/03/03 09:56:52;;;;;;;0.33;0.33;;;11.00;1.00;;;;;;5075863;28;20170;-76
2022/03/03 09:59:17;;;;;;;0.30;0.30;;;12.10;1.00;;;;;;5075612;28;20218;-74
2022/03/03 10:01:45;;;;;;;0.40;0.40;;;12.50;1.00;;;;;;5075884;28;20181;-76
2022/03/03 10:04:17;;;;;;;0.30;0.30;;;12.20;1.00;;;;;;5075319;28;20747;-76
2022/03/03 10:06:43;;;;;;;0.40;0.40;;;11.40;1.00;;;;;;5074909;28;20218;-76
2022/03/03 10:09:10;;;;;;;0.30;0.30;;;11.70;1.00;;;;;;5073447;28;20178;-77
2022/03/03 10:11:48;;;;;;;0.30;0.30;;;11.70;1.00;;;;;;5074108;28;20206;-76
2022/03/03 10:14:35;;;;;;;0.37;0.37;;;11.00;1.00;;;;;;5073492;28;20683;-76
2022/03/03 10:17:02;;;;;;;0.40;0.40;;;11.20;1.00;;;;;;5074186;28;20725;-73
2022/03/03 10:19:28;;;;;;;0.37;0.37;;;12.50;1.00;;;;;;5073404;28;20202;-76
2022/03/03 10:21:54;;;;;;;0.30;0.30;;;12.60;1.00;;;;;;5073587;28;20170;-76
2022/03/03 10:24:26;;;;;;;0.40;0.40;;;13.10;1.00;;;;;;5074307;28;20228;-75
2022/03/03 10:26:57;;;;;;;0.30;0.30;;;14.10;1.00;;;;;;5074937;28;20343;-75
2022/03/03 10:29:23;;;;;;;0.30;0.30;;;14.20;1.00;;;;;;5074130;28;20260;-75
2022/03/03 10:31:51;;;;;;;0.30;0.30;;;14.60;1.00;;;;;;5074633;28;20221;-76
2022/03/03 10:34:22;;;;;;;0.40;0.40;;;15.20;1.00;;;;;;5075082;28;20261;-76
2022/03/03 10:37:03;;;;;;;0.30;0.30;;;13.90;1.00;;;;;;5075011;28;20179;-75
2022/03/03 10:39:43;;;;;;;0.30;0.30;;;14.70;1.00;;;;;;5074339;28;20297;-75
2022/03/03 10:42:19;;;;;;;0.20;0.20;;;14.30;1.00;;;;;;5075591;28;20560;-75
2022/03/03 10:44:46;;;;;;;0.30;0.30;;;14.60;1.00;;;;;;5074692;28;20174;-76
2022/03/03 10:47:14;;;;;;;0.30;0.30;;;14.20;1.00;;;;;;5075090;28;20209;-76
2022/03/03 10:49:42;;;;;;;0.30;0.30;;;14.80;1.00;;;;;;5073427;28;20202;-75
2022/03/03 10:52:09;;;;;;;0.40;0.40;;;14.80;1.00;;;;;;5074009;28;20175;-75
2022/03/03 10:55:01;;;;;;;0.23;0.23;;;14.20;1.00;;;;;;5073683;28;20277;-77
2022/03/03 10:57:44;;;;;;;0.30;0.30;;;15.40;1.00;;;;;;5072293;28;20170;-77
2022/03/03 11:00:19;;;;;;;0.30;0.30;;;16.20;1.00;;;;;;5072278;28;20195;-76
2022/03/03 11:02:56;;;;;;;0.40;0.40;;;15.90;1.00;;;;;;5073696;28;20174;-75
2022/03/03 11:05:23;;;;;;;0.30;0.30;;;15.50;1.00;;;;;;5073796;28;20170;-76
2022/03/03 11:07:50;;;;;;;0.40;0.40;;;15.90;1.00;;;;;;5074191;28;20300;-76
2022/03/03 11:10:21;;;;;;;0.20;0.20;;;16.00;1.00;;;;;;5074428;28;20191;-74
2022/03/03 11:12:47;;;;;;;0.30;0.30;;;15.90;1.00;;;;;;5074402;28;20180;-77
2022/03/03 11:15:15;;;;;;;0.30;0.30;;;16.10;1.00;;;;;;5072157;28;20175;-75
2022/03/03 11:17:42;;;;;;;0.40;0.40;;;16.90;1.00;;;;;;5073137;28;20274;-73
2022/03/03 11:20:12;;;;;;;0.40;0.40;;;17.30;1.00;;;;;;5070966;28;20287;-78
2022/03/03 11:22:39;;;;;;;0.30;0.30;;;18.10;1.00;;;;;;5073697;28;20174;-76
2022/03/03 11:25:08;;;;;;;0.40;0.40;;;18.10;1.00;;;;;;5072721;28;20236;-75
2022/03/03 11:27:37;;;;;;;0.30;0.30;;;18.50;1.00;;;;;;5072953;28;20904;-78
2022/03/03 11:30:27;;;;;;;0.40;0.40;;;18.10;1.00;;;;;;5074237;28;20194;-78
2022/03/03 11:33:27;;;;;;;0.30;0.30;;;17.90;1.00;;;;;;5071165;28;20194;-75
2022/03/03 11:35:58;;;;;;;0.30;0.30;;;16.20;1.00;;;;;;5071494;28;20166;-76
2022/03/03 11:38:26;;;;;;;0.40;0.40;;;16.40;1.00;;;;;;5071684;28;20206;-74
2022/03/03 11:40:57;;;;;;;0.30;0.30;;;15.80;1.00;;;;;;5070831;28;20194;-75
2022/03/03 11:43:24;;;;;;;0.30;0.30;;;15.60;1.00;;;;;;5071792;28;20179;-75
2022/03/03 11:45:55;;;;;;;0.27;0.27;;;16.30;1.00;;;;;;5071398;28;20253;-76
2022/03/03 11:48:23;;;;;;;0.30;0.30;;;16.70;1.00;;;;;;5071764;28;20253;-76
2022/03/03 11:50:51;;;;;;;0.30;0.30;;;17.10;1.00;;;;;;5070559;28;20199;-76
2022/03/03 11:53:24;;;;;;;0.30;0.30;;;18.60;1.00;;;;;;5071548;28;20651;-76
2022/03/03 11:56:16;;;;;;;0.33;0.33;;;18.80;1.00;;;;;;5071650;28;20227;-76
2022/03/03 11:58:42;;;;;;;0.30;0.30;;;19.50;1.00;;;;;;5069287;28;20648;-76
2022/03/03 12:01:12;;;;;;;0.50;0.50;;;19.20;1.00;;;;;;5071093;28;20220;-76
2022/03/03 12:04:03;;;;;;;0.30;0.30;;;19.10;1.00;;;;;;5071406;28;20221;-76
2022/03/03 12:06:40;;;;;;;0.50;0.50;;;19.70;1.00;;;;;;5071170;28;20173;-76
2022/03/03 12:09:41;;;;;;;0.40;0.40;;;19.80;1.00;;;;;;5071129;28;20188;-75
2022/03/03 12:12:11;;;;;;;0.40;0.40;;;19.70;1.00;;;;;;5049127;28;20182;-77
2022/03/03 12:14:39;;;;;;;0.40;0.40;;;20.30;1.00;;;;;;5071635;28;20177;-76
2022/03/03 12:17:47;;;;;;;0.30;0.30;;;20.30;1.00;;;;;;5071256;28;20174;-76
2022/03/03 12:20:30;;;;;;;0.30;0.30;;;20.50;1.00;;;;;;5064996;28;20335;-76
2022/03/03 12:23:08;;;;;;;0.50;0.50;;;20.20;1.00;;;;;;5071254;28;20179;-75
2022/03/03 12:25:51;;;;;;;0.40;0.40;;;19.70;1.00;;;;;;5071154;28;20248;-75
2022/03/03 12:28:43;;;;;;;0.40;0.40;;;19.90;1.00;;;;;;5070944;28;20589;-76
2022/03/03 12:31:21;;;;;;;0.50;0.50;;;19.90;1.00;;;;;;5070690;28;20198;-75
2022/03/03 12:34:07;;;;;;;0.40;0.40;;;20.50;1.00;;;;;;5071283;28;20601;-76
2022/03/03 12:36:35;;;;;;;0.30;0.30;;;20.30;1.00;;;;;;5072113;28;20170;-74
2022/03/03 12:39:02;;;;;;;0.37;0.37;;;20.60;1.00;;;;;;5073251;28;20166;-75
2022/03/03 12:41:30;;;;;;;0.30;0.30;;;20.40;1.00;;;;;;5087023;28;20158;-75
2022/03/03 12:44:09;;;;;;;0.37;0.37;;;20.90;1.00;;;;;;5089347;28;20179;-75
2022/03/03 12:46:35;;;;;;;0.30;0.30;;;20.50;1.00;;;;;;5085726;28;20202;-76
2022/03/03 12:49:05;;;;;;;0.30;0.30;;;20.00;1.00;;;;;;5089649;28;20178;-75
2022/03/03 12:51:32;;;;;;;0.30;0.30;;;20.50;1.00;;;;;;5088981;28;20182;-76
2022/03/03 12:54:03;;;;;;;0.30;0.30;;;19.40;1.00;;;;;;5068948;28;20309;-75
2022/03/03 12:56:30;;;;;;;0.40;0.40;;;20.30;1.00;;;;;;5070178;28;20171;-75
2022/03/03 12:58:55;;;;;;;0.30;0.30;;;20.90;1.00;;;;;;5059811;28;20253;-79
2022/03/03 13:01:25;;;;;;;0.30;0.30;;;20.70;1.00;;;;;;5057635;28;20534;-75
2022/03/03 13:03:51;;;;;;;0.43;0.43;;;20.70;1.00;;;;;;5053116;28;20645;-76